createdAt,value
2018-08-25T00:00:45.236Z,25.9
2018-08-25T00:01:35.199Z,25.9
2018-08-25T00:02:25.831Z,25.9
2018-08-25T00:03:15.116Z,25.9
2018-08-25T00:04:04.633Z,25.9
2018-08-25T00:04:56.111Z,25.9
2018-08-25T00:05:45.053Z,25.9
2018-08-25T00:06:35.652Z,25.9
2018-08-25T00:07:25.723Z,25.9
2018-08-25T00:08:15.163Z,25.9
2018-08-25T00:09:06.187Z,25.9
2018-08-25T00:09:55.270Z,25.9
2018-08-25T00:10:47.057Z,25.9
2018-08-25T00:11:36.494Z,25.9
2018-08-25T00:12:26.337Z,25.9
2018-08-25T00:31:22.249Z,25.5
2018-08-25T00:32:12.588Z,25.6
2018-08-25T00:33:02.402Z,25.6
2018-08-25T00:33:52.991Z,25.6
2018-08-25T00:34:42.768Z,25.6
2018-08-25T00:35:32.821Z,25.6
2018-08-25T00:36:22.567Z,25.6
2018-08-25T00:37:12.944Z,25.6
2018-08-25T00:38:02.748Z,25.6
2018-08-25T00:38:53.619Z,25.6
2018-08-25T00:39:43.692Z,25.7
2018-08-25T00:40:33.201Z,25.6
2018-08-25T00:41:24.357Z,25.6
2018-08-25T00:42:12.850Z,25.6
2018-08-25T00:43:02.571Z,25.6
2018-08-25T00:43:53.713Z,25.7
2018-08-25T00:44:42.996Z,25.7
2018-08-25T00:45:32.457Z,25.7
2018-08-25T00:46:23.580Z,25.7
2018-08-25T00:47:13.997Z,25.7
2018-08-25T00:48:04.005Z,25.7
2018-08-25T00:48:53.556Z,25.7
2018-08-25T00:49:43.989Z,25.7
2018-08-25T00:50:34.261Z,25.7
2018-08-25T00:51:23.485Z,25.7
2018-08-25T00:52:13.575Z,25.7
2018-08-25T00:53:03.605Z,25.7
2018-08-25T00:53:53.705Z,25.7
2018-08-25T00:54:43.763Z,25.7
2018-08-25T00:55:34.731Z,25.7
2018-08-25T00:56:24.469Z,25.8
2018-08-25T00:57:14.786Z,25.7
2018-08-25T00:58:03.982Z,25.7
2018-08-25T00:58:54.417Z,25.7
2018-08-25T00:59:44.499Z,25.7
2018-08-25T01:00:34.500Z,25.7
2018-08-25T01:01:25.108Z,25.7
2018-08-25T01:02:15.741Z,25.8
2018-08-25T01:03:03.817Z,25.8
2018-08-25T01:03:54.999Z,25.8
2018-08-25T01:04:44.798Z,25.8
2018-08-25T01:05:34.623Z,25.8
2018-08-25T01:06:24.123Z,25.7
2018-08-25T01:07:14.912Z,25.7
2018-08-25T01:08:05.427Z,25.7
2018-08-25T01:08:55.416Z,25.7
2018-08-25T01:09:45.495Z,25.7
2018-08-25T01:10:35.818Z,25.7
2018-08-25T01:11:25.607Z,25.8
2018-08-25T01:12:14.970Z,25.8
2018-08-25T01:13:06.044Z,25.8
2018-08-25T01:13:55.018Z,25.8
2018-08-25T01:14:45.049Z,25.8
2018-08-25T01:15:35.868Z,25.8
2018-08-25T01:16:25.394Z,25.8
2018-08-25T01:17:15.413Z,25.7
2018-08-25T01:18:05.011Z,25.7
2018-08-25T01:18:55.922Z,25.7
2018-08-25T01:19:45.796Z,25.7
2018-08-25T01:20:36.626Z,25.7
2018-08-25T01:21:25.259Z,25.7
2018-08-25T01:22:16.943Z,25.7
2018-08-25T01:23:06.790Z,25.7
2018-08-25T01:23:56.828Z,25.6
2018-08-25T01:24:46.398Z,25.6
2018-08-25T01:25:36.455Z,25.6
2018-08-25T01:26:27.059Z,25.6
2018-08-25T01:27:16.271Z,25.6
2018-08-25T01:28:06.302Z,25.6
2018-08-25T01:28:56.689Z,25.6
2018-08-25T01:29:45.876Z,25.6
2018-08-25T01:30:37.432Z,25.6
2018-08-25T01:31:26.878Z,25.6
2018-08-25T01:32:16.911Z,25.6
2018-08-25T01:33:07.183Z,25.6
2018-08-25T01:33:57.320Z,25.6
2018-08-25T01:34:47.121Z,25.6
2018-08-25T01:35:37.218Z,25.6
2018-08-25T01:36:27.233Z,25.6
2018-08-25T01:37:16.496Z,25.6
2018-08-25T01:38:07.928Z,25.6
2018-08-25T01:38:57.975Z,25.6
2018-08-25T01:39:48.098Z,25.6
2018-08-25T01:40:37.845Z,25.6
2018-08-25T01:41:28.208Z,25.6
2018-08-25T01:42:17.473Z,25.6
2018-08-25T01:43:08.672Z,25.6
2018-08-25T01:43:58.665Z,25.6
2018-08-25T01:44:48.989Z,25.6
2018-08-25T01:45:37.672Z,25.6
2018-08-25T01:46:28.603Z,25.6
2018-08-25T01:47:18.131Z,25.6
2018-08-25T01:48:07.871Z,25.6
2018-08-25T01:48:57.725Z,25.6
2018-08-25T01:49:47.795Z,25.6
2018-08-25T01:50:38.695Z,25.6
2018-08-25T01:51:27.407Z,25.6
2018-08-25T01:52:18.783Z,25.6
2018-08-25T01:53:08.824Z,25.6
2018-08-25T01:53:58.895Z,25.6
2018-08-25T01:54:48.752Z,25.6
2018-08-25T01:55:38.257Z,25.6
2018-08-25T01:56:28.331Z,25.6
2018-08-25T01:57:18.590Z,25.6
2018-08-25T01:58:08.765Z,25.6
2018-08-25T01:58:59.350Z,25.6
2018-08-25T01:59:48.913Z,25.6
2018-08-25T02:00:39.245Z,25.6
2018-08-25T02:01:29.304Z,25.6
2018-08-25T02:02:18.806Z,25.6
2018-08-25T02:03:09.403Z,25.6
2018-08-25T02:03:59.678Z,25.6
2018-08-25T02:04:49.227Z,25.6
2018-08-25T02:05:39.809Z,25.6
2018-08-25T02:06:29.172Z,25.5
2018-08-25T02:07:19.192Z,25.6
2018-08-25T02:08:09.525Z,25.5
2018-08-25T02:08:59.922Z,25.5
2018-08-25T02:09:49.376Z,25.5
2018-08-25T02:10:38.954Z,25.5
2018-08-25T02:11:29.493Z,25.6
2018-08-25T02:12:18.424Z,25.5
2018-08-25T02:13:10.213Z,25.5
2018-08-25T02:14:00.509Z,25.5
2018-08-25T02:14:49.739Z,25.5
2018-08-25T02:15:40.328Z,25.5
2018-08-25T02:16:30.196Z,25.5
2018-08-25T02:17:20.213Z,25.5
2018-08-25T02:18:10.278Z,25.5
2018-08-25T02:19:01.122Z,25.5
2018-08-25T02:19:50.677Z,25.5
2018-08-25T02:20:40.155Z,25.5
2018-08-25T02:21:30.500Z,25.5
2018-08-25T02:22:20.934Z,25.5
2018-08-25T02:23:10.945Z,25.5
2018-08-25T02:24:01.221Z,25.5
2018-08-25T02:24:50.530Z,25.5
2018-08-25T02:25:40.596Z,25.5
2018-08-25T02:26:31.216Z,25.5
2018-08-25T02:27:20.977Z,25.5
2018-08-25T02:28:11.937Z,25.5
2018-08-25T02:29:00.906Z,25.5
2018-08-25T02:29:49.879Z,25.5
2018-08-25T02:30:40.539Z,25.5
2018-08-25T02:31:30.565Z,25.5
2018-08-25T02:32:20.939Z,25.5
2018-08-25T02:33:10.893Z,25.5
2018-08-25T02:34:01.551Z,25.5
2018-08-25T02:34:51.321Z,25.5
2018-08-25T02:35:42.199Z,25.4
2018-08-25T02:36:31.417Z,25.5
2018-08-25T02:37:21.827Z,25.5
2018-08-25T02:38:11.909Z,25.5
2018-08-25T02:39:01.082Z,25.5
2018-08-25T02:39:51.674Z,25.5
2018-08-25T02:40:41.524Z,25.4
2018-08-25T02:41:31.284Z,25.4
2018-08-25T02:42:22.779Z,25.4
2018-08-25T02:43:11.694Z,25.4
2018-08-25T02:44:01.524Z,25.4
2018-08-25T02:44:52.143Z,25.4
2018-08-25T02:45:42.804Z,25.4
2018-08-25T02:46:31.801Z,25.4
2018-08-25T02:47:23.111Z,25.4
2018-08-25T02:48:12.673Z,25.4
2018-08-25T02:49:02.614Z,25.4
2018-08-25T02:49:52.210Z,25.4
2018-08-25T02:50:42.806Z,25.4
2018-08-25T02:51:32.938Z,25.4
2018-08-25T02:52:22.897Z,25.4
2018-08-25T02:53:12.794Z,25.4
2018-08-25T02:54:01.945Z,25.4
2018-08-25T02:54:53.658Z,25.4
2018-08-25T02:55:43.219Z,25.4
2018-08-25T02:56:33.576Z,25.4
2018-08-25T02:57:23.609Z,25.4
2018-08-25T02:58:12.575Z,25.4
2018-08-25T02:59:03.460Z,25.4
2018-08-25T02:59:53.558Z,25.4
2018-08-25T03:00:43.641Z,25.4
2018-08-25T03:01:33.415Z,25.4
2018-08-25T03:02:23.433Z,25.4
2018-08-25T03:03:13.521Z,25.4
2018-08-25T03:04:04.158Z,25.4
2018-08-25T03:04:54.459Z,25.4
2018-08-25T03:05:43.953Z,25.4
2018-08-25T03:06:34.059Z,25.4
2018-08-25T03:07:24.429Z,25.4
2018-08-25T03:08:14.476Z,25.4
2018-08-25T03:09:04.540Z,25.4
2018-08-25T03:09:54.861Z,25.3
2018-08-25T03:10:45.198Z,25.3
2018-08-25T03:11:33.894Z,25.3
2018-08-25T03:12:25.073Z,25.3
2018-08-25T03:13:13.997Z,25.3
2018-08-25T03:14:04.964Z,25.4
2018-08-25T03:14:54.214Z,25.3
2018-08-25T03:15:44.235Z,25.3
2018-08-25T03:16:34.859Z,25.3
2018-08-25T03:17:25.240Z,25.3
2018-08-25T03:18:15.163Z,25.3
2018-08-25T03:19:04.979Z,25.3
2018-08-25T03:19:55.625Z,25.3
2018-08-25T03:20:44.413Z,25.3
2018-08-25T03:21:34.919Z,25.3
2018-08-25T03:22:24.947Z,25.3
2018-08-25T03:23:15.939Z,25.4
2018-08-25T03:24:05.445Z,25.3
2018-08-25T03:24:56.032Z,25.3
2018-08-25T03:25:44.714Z,25.3
2018-08-25T03:26:36.096Z,25.3
2018-08-25T03:27:25.949Z,25.3
2018-08-25T03:28:16.030Z,25.3
2018-08-25T03:29:06.074Z,25.3
2018-08-25T03:29:55.326Z,25.3
2018-08-25T03:30:45.817Z,25.3
2018-08-25T03:31:36.241Z,25.3
2018-08-25T03:32:26.452Z,25.3
2018-08-25T03:33:17.134Z,25.3
2018-08-25T03:34:06.182Z,25.3
2018-08-25T03:34:55.678Z,25.3
2018-08-25T03:35:47.022Z,25.3
2018-08-25T03:36:35.788Z,25.3
2018-08-25T03:37:26.156Z,25.3
2018-08-25T03:38:17.792Z,25.3
2018-08-25T03:39:07.366Z,25.3
2018-08-25T03:39:57.421Z,25.3
2018-08-25T03:40:47.239Z,25.3
2018-08-25T03:41:36.465Z,25.3
2018-08-25T03:42:27.068Z,25.3
2018-08-25T03:43:16.385Z,25.3
2018-08-25T03:44:07.560Z,25.3
2018-08-25T03:44:56.655Z,25.3
2018-08-25T03:45:46.816Z,25.3
2018-08-25T03:46:36.817Z,25.3
2018-08-25T03:47:27.239Z,25.3
2018-08-25T03:48:17.193Z,25.3
2018-08-25T03:49:07.021Z,25.3
2018-08-25T03:49:57.463Z,25.3
2018-08-25T03:50:48.466Z,25.2
2018-08-25T03:51:37.776Z,25.3
2018-08-25T03:52:28.415Z,25.2
2018-08-25T03:53:18.525Z,25.3
2018-08-25T03:54:06.800Z,25.2
2018-08-25T03:54:58.895Z,25.2
2018-08-25T03:55:48.643Z,25.3
2018-08-25T03:56:38.676Z,25.2
2018-08-25T03:57:28.785Z,25.3
2018-08-25T03:58:16.941Z,25.2
2018-08-25T03:59:09.242Z,25.2
2018-08-25T03:59:58.450Z,25.3
2018-08-25T04:00:49.293Z,25.2
2018-08-25T04:01:41.279Z,25.2
2018-08-25T04:02:28.844Z,25.2
2018-08-25T04:03:17.815Z,25.2
2018-08-25T04:04:09.299Z,25.2
2018-08-25T04:04:59.313Z,25.2
2018-08-25T04:05:49.383Z,25.2
2018-08-25T04:06:39.717Z,25.2
2018-08-25T04:07:28.945Z,25.2
2018-08-25T04:08:19.294Z,25.2
2018-08-25T04:09:09.942Z,25.2
2018-08-25T04:09:58.572Z,25.2
2018-08-25T04:10:49.796Z,25.2
2018-08-25T04:11:40.179Z,25.2
2018-08-25T04:12:28.744Z,25.2
2018-08-25T04:13:19.479Z,25.2
2018-08-25T04:14:10.269Z,25.2
2018-08-25T04:15:01.731Z,25.2
2018-08-25T04:15:49.625Z,25.2
2018-08-25T04:16:39.360Z,25.2
2018-08-25T04:17:30.384Z,25.2
2018-08-25T04:18:20.104Z,25.2
2018-08-25T04:19:10.472Z,25.2
2018-08-25T04:20:00.271Z,25.2
2018-08-25T04:20:50.569Z,25.2
2018-08-25T04:21:40.662Z,25.2
2018-08-25T04:22:30.966Z,25.1
2018-08-25T04:23:20.563Z,25.2
2018-08-25T04:24:10.233Z,25.1
2018-08-25T04:25:00.634Z,25.2
2018-08-25T04:25:49.953Z,25.2
2018-08-25T04:26:41.057Z,25.1
2018-08-25T04:27:30.268Z,25.2
2018-08-25T04:28:20.599Z,25.2
2018-08-25T04:29:11.298Z,25.2
2018-08-25T04:30:01.309Z,25.2
2018-08-25T04:30:51.055Z,25.2
2018-08-25T04:31:40.365Z,25.2
2018-08-25T04:32:31.750Z,25.2
2018-08-25T04:33:22.465Z,25.2
2018-08-25T04:34:11.636Z,25.2
2018-08-25T04:35:01.404Z,25.2
2018-08-25T04:35:51.480Z,25.2
2018-08-25T04:36:42.060Z,25.2
2018-08-25T04:37:31.516Z,25.1
2018-08-25T04:38:21.407Z,25.1
2018-08-25T04:39:12.290Z,25.1
2018-08-25T04:40:02.339Z,25.2
2018-08-25T04:40:51.878Z,25.2
2018-08-25T04:41:41.900Z,25.2
2018-08-25T04:42:32.790Z,25.2
2018-08-25T05:00:30.870Z,24.9
2018-08-25T05:01:20.196Z,24.9
2018-08-25T05:02:10.133Z,24.9
2018-08-25T05:03:00.860Z,24.9
2018-08-25T05:03:50.708Z,24.9
2018-08-25T05:04:40.343Z,24.9
2018-08-25T05:05:31.053Z,24.9
2018-08-25T05:06:20.818Z,24.9
2018-08-25T05:07:10.878Z,25
2018-08-25T05:08:00.146Z,25
2018-08-25T05:08:50.540Z,25
2018-08-25T05:09:40.655Z,25
2018-08-25T05:10:31.421Z,25.1
2018-08-25T05:11:21.458Z,25.1
2018-08-25T05:12:11.026Z,25.1
2018-08-25T05:13:01.651Z,25.1
2018-08-25T05:13:51.091Z,25.1
2018-08-25T05:14:41.519Z,25.1
2018-08-25T05:15:31.846Z,25.1
2018-08-25T05:16:21.607Z,25.1
2018-08-25T05:17:12.038Z,25.1
2018-08-25T05:18:01.439Z,25.2
2018-08-25T05:18:51.547Z,25.2
2018-08-25T05:19:42.191Z,25.1
2018-08-25T05:20:31.885Z,25.2
2018-08-25T05:21:22.036Z,25.2
2018-08-25T05:22:12.537Z,25.2
2018-08-25T05:23:02.402Z,25.1
2018-08-25T05:23:51.949Z,25.1
2018-08-25T05:24:42.270Z,25.2
2018-08-25T05:25:32.599Z,25.2
2018-08-25T05:26:22.646Z,25.2
2018-08-25T05:27:12.137Z,25.2
2018-08-25T05:28:02.537Z,25.2
2018-08-25T05:28:52.577Z,25.2
2018-08-25T05:29:43.196Z,25.2
2018-08-25T05:30:32.658Z,25.2
2018-08-25T05:31:22.179Z,25.2
2018-08-25T05:32:12.852Z,25.3
2018-08-25T05:33:02.625Z,25.2
2018-08-25T05:33:52.928Z,25.3
2018-08-25T05:34:42.786Z,25.3
2018-08-25T05:35:31.932Z,25.2
2018-08-25T05:36:23.729Z,25.2
2018-08-25T05:37:12.905Z,25.3
2018-08-25T05:38:02.998Z,25.2
2018-08-25T05:38:53.314Z,25.1
2018-08-25T05:39:43.418Z,25.1
2018-08-25T05:40:33.178Z,25
2018-08-25T05:41:23.566Z,25
2018-08-25T05:42:13.285Z,24.9
2018-08-25T05:43:03.067Z,24.9
2018-08-25T05:43:53.994Z,24.9
2018-08-25T05:44:43.333Z,24.9
2018-08-25T05:45:33.955Z,24.9
2018-08-25T05:46:23.614Z,24.8
2018-08-25T05:47:14.532Z,24.9
2018-08-25T05:48:03.509Z,24.8
2018-08-25T05:48:54.146Z,24.9
2018-08-25T05:49:42.826Z,24.9
2018-08-25T05:50:34.511Z,24.9
2018-08-25T05:51:25.220Z,24.9
2018-08-25T05:52:15.232Z,24.9
2018-08-25T05:53:05.014Z,24.9
2018-08-25T05:53:54.877Z,24.9
2018-08-25T05:54:44.537Z,24.9
2018-08-25T05:55:35.172Z,24.8
2018-08-25T05:56:24.949Z,24.8
2018-08-25T05:57:14.734Z,24.9
2018-08-25T05:58:05.454Z,24.9
2018-08-25T05:58:55.268Z,24.9
2018-08-25T05:59:45.794Z,24.9
2018-08-25T06:00:35.293Z,24.8
2018-08-25T06:01:25.063Z,24.8
2018-08-25T06:02:15.202Z,24.8
2018-08-25T06:03:06.047Z,24.9
2018-08-25T06:03:55.548Z,24.9
2018-08-25T06:04:45.248Z,24.8
2018-08-25T06:05:35.701Z,24.9
2018-08-25T06:06:25.796Z,24.9
2018-08-25T06:07:15.764Z,24.9
2018-08-25T06:08:05.409Z,24.9
2018-08-25T06:08:56.218Z,24.8
2018-08-25T06:09:45.975Z,24.8
2018-08-25T06:10:36.319Z,24.8
2018-08-25T06:11:24.999Z,24.8
2018-08-25T06:12:15.878Z,24.8
2018-08-25T06:13:06.206Z,24.8
2018-08-25T06:13:56.381Z,24.8
2018-08-25T06:14:46.909Z,24.7
2018-08-25T06:15:36.656Z,24.8
2018-08-25T06:16:26.179Z,24.8
2018-08-25T06:17:16.785Z,24.8
2018-08-25T06:18:06.856Z,24.8
2018-08-25T06:18:56.859Z,24.7
2018-08-25T06:19:46.680Z,24.7
2018-08-25T06:20:36.780Z,24.8
2018-08-25T06:21:26.339Z,24.8
2018-08-25T06:22:16.933Z,24.8
2018-08-25T06:23:06.752Z,24.7
2018-08-25T06:23:56.317Z,24.7
2018-08-25T06:24:47.132Z,24.7
2018-08-25T06:25:36.612Z,24.8
2018-08-25T06:26:26.424Z,24.8
2018-08-25T06:27:17.738Z,24.8
2018-08-25T06:28:07.661Z,24.8
2018-08-25T06:28:57.394Z,24.8
2018-08-25T06:29:48.861Z,24.8
2018-08-25T06:30:37.594Z,24.8
2018-08-25T06:31:27.410Z,24.8
2018-08-25T06:32:17.450Z,24.8
2018-08-25T06:33:08.044Z,24.8
2018-08-25T06:33:57.035Z,24.8
2018-08-25T06:34:47.604Z,24.8
2018-08-25T06:35:37.628Z,24.7
2018-08-25T06:36:27.931Z,24.8
2018-08-25T06:37:18.105Z,24.7
2018-08-25T06:38:08.036Z,24.8
2018-08-25T06:38:58.434Z,24.7
2018-08-25T06:39:48.772Z,24.8
2018-08-25T06:40:38.287Z,24.7
2018-08-25T06:41:27.573Z,24.8
2018-08-25T06:42:18.425Z,24.8
2018-08-25T06:43:07.684Z,24.8
2018-08-25T06:43:58.305Z,24.8
2018-08-25T06:44:47.511Z,24.8
2018-08-25T06:45:38.122Z,24.8
2018-08-25T06:46:28.805Z,24.8
2018-08-25T06:47:18.552Z,24.8
2018-08-25T06:48:08.879Z,24.7
2018-08-25T06:48:59.497Z,24.7
2018-08-25T06:49:48.150Z,24.7
2018-08-25T06:50:39.389Z,24.6
2018-08-25T06:51:29.134Z,24.7
2018-08-25T06:52:19.228Z,24.7
2018-08-25T06:53:09.529Z,24.7
2018-08-25T06:53:58.496Z,24.7
2018-08-25T06:54:48.281Z,24.7
2018-08-25T06:55:39.153Z,24.7
2018-08-25T06:56:29.296Z,24.7
2018-08-25T06:57:18.766Z,24.7
2018-08-25T06:58:09.564Z,24.7
2018-08-25T06:58:59.597Z,24.7
2018-08-25T06:59:49.573Z,24.8
2018-08-25T07:00:39.123Z,24.8
2018-08-25T07:01:29.617Z,24.8
2018-08-25T07:02:18.638Z,24.8
2018-08-25T07:03:09.571Z,24.8
2018-08-25T07:03:59.383Z,24.8
2018-08-25T07:04:50.139Z,24.8
2018-08-25T07:05:40.265Z,24.8
2018-08-25T07:06:30.122Z,24.8
2018-08-25T07:07:20.232Z,24.8
2018-08-25T07:08:10.160Z,24.8
2018-08-25T07:08:59.950Z,24.8
2018-08-25T07:09:51.146Z,24.8
2018-08-25T07:10:40.859Z,24.9
2018-08-25T07:11:30.189Z,24.9
2018-08-25T07:12:20.212Z,24.9
2018-08-25T07:13:10.792Z,25
2018-08-25T07:14:00.585Z,24.9
2018-08-25T07:14:51.204Z,24.9
2018-08-25T07:15:41.270Z,24.9
2018-08-25T07:16:30.713Z,24.9
2018-08-25T07:17:20.819Z,24.9
2018-08-25T07:18:10.884Z,24.9
2018-08-25T07:19:02.277Z,24.9
2018-08-25T07:19:51.044Z,25
2018-08-25T07:20:41.628Z,25
2018-08-25T07:21:31.484Z,25.1
2018-08-25T07:22:21.580Z,25.1
2018-08-25T07:23:11.856Z,25.1
2018-08-25T07:24:00.222Z,25.1
2018-08-25T07:24:50.902Z,25.1
2018-08-25T07:25:41.381Z,25.2
2018-08-25T07:26:31.679Z,25.2
2018-08-25T07:27:20.766Z,25.2
2018-08-25T07:28:12.216Z,25.2
2018-08-25T07:29:01.730Z,25.2
2018-08-25T07:29:51.010Z,25.2
2018-08-25T07:30:42.361Z,25.3
2018-08-25T07:31:32.712Z,25.2
2018-08-25T07:32:23.432Z,25.3
2018-08-25T07:33:12.121Z,25.3
2018-08-25T07:34:01.293Z,25.3
2018-08-25T07:34:53.038Z,25.3
2018-08-25T07:35:42.843Z,25.3
2018-08-25T07:36:32.567Z,25.3
2018-08-25T07:37:22.375Z,25.4
2018-08-25T07:38:12.953Z,25.4
2018-08-25T07:39:02.228Z,25.4
2018-08-25T07:39:52.285Z,25.4
2018-08-25T07:40:43.169Z,25.4
2018-08-25T07:41:33.041Z,25.5
2018-08-25T07:42:22.299Z,25.5
2018-08-25T07:43:13.187Z,25.6
2018-08-25T07:44:03.541Z,25.6
2018-08-25T07:44:52.456Z,25.6
2018-08-25T07:45:41.865Z,25.6
2018-08-25T07:46:32.555Z,25.7
2018-08-25T07:47:23.713Z,25.6
2018-08-25T07:48:13.844Z,25.7
2018-08-25T07:49:02.753Z,25.6
2018-08-25T07:49:52.793Z,25.6
2018-08-25T07:50:43.666Z,25.6
2018-08-25T07:51:34.021Z,25.6
2018-08-25T07:52:22.668Z,25.6
2018-08-25T07:53:13.928Z,25.7
2018-08-25T07:54:03.830Z,25.7
2018-08-25T07:54:53.717Z,25.7
2018-08-25T07:55:44.344Z,25.8
2018-08-25T07:56:34.082Z,25.8
2018-08-25T07:57:24.469Z,25.8
2018-08-25T07:58:13.797Z,25.7
2018-08-25T07:59:05.097Z,25.8
2018-08-25T07:59:54.320Z,25.8
2018-08-25T08:00:44.500Z,25.8
2018-08-25T08:01:34.279Z,25.8
2018-08-25T08:02:24.869Z,25.9
2018-08-25T08:03:14.646Z,25.9
2018-08-25T08:04:04.445Z,25.9
2018-08-25T08:04:55.416Z,25.9
2018-08-25T08:05:46.063Z,25.9
2018-08-25T08:06:34.325Z,25.9
2018-08-25T08:07:24.662Z,25.9
2018-08-25T08:08:13.745Z,25.9
2018-08-25T08:09:05.171Z,25.9
2018-08-25T08:09:54.596Z,25.9
2018-08-25T08:10:44.386Z,25.9
2018-08-25T08:11:34.021Z,25.9
2018-08-25T08:12:27.454Z,25.9
2018-08-25T08:13:15.502Z,26
2018-08-25T08:14:05.573Z,26
2018-08-25T08:14:55.315Z,26.1
2018-08-25T08:15:45.165Z,26.1
2018-08-25T08:16:35.719Z,26.1
2018-08-25T08:17:25.744Z,26.1
2018-08-25T08:18:15.018Z,26.1
2018-08-25T08:19:05.925Z,26.1
2018-08-25T08:19:55.983Z,26.1
2018-08-25T08:20:45.839Z,26.1
2018-08-25T08:21:35.491Z,26.1
2018-08-25T08:22:25.655Z,26.1
2018-08-25T08:23:15.941Z,26.1
2018-08-25T08:24:03.992Z,26.2
2018-08-25T08:24:56.370Z,26.2
2018-08-25T08:25:46.208Z,26.2
2018-08-25T08:26:35.564Z,26.2
2018-08-25T08:27:26.498Z,26.2
2018-08-25T08:28:16.943Z,26.3
2018-08-25T08:29:06.152Z,26.3
2018-08-25T08:29:56.980Z,26.3
2018-08-25T08:30:46.512Z,26.3
2018-08-25T08:31:36.921Z,26.3
2018-08-25T08:32:26.947Z,26.3
2018-08-25T08:33:17.660Z,26.4
2018-08-25T08:34:06.495Z,26.4
2018-08-25T08:34:56.570Z,26.4
2018-08-25T08:35:46.936Z,26.4
2018-08-25T08:36:37.525Z,26.4
2018-08-25T08:37:26.573Z,26.4
2018-08-25T08:38:17.716Z,26.4
2018-08-25T08:39:06.976Z,26.4
2018-08-25T08:39:56.323Z,26.4
2018-08-25T08:40:46.923Z,26.4
2018-08-25T08:41:36.901Z,26.4
2018-08-25T08:42:29.749Z,26.4
2018-08-25T08:43:17.585Z,26.4
2018-08-25T08:44:07.361Z,26.4
2018-08-25T08:44:57.700Z,26.4
2018-08-25T08:45:47.513Z,26.5
2018-08-25T08:46:37.275Z,26.5
2018-08-25T08:47:28.302Z,26.5
2018-08-25T08:48:18.200Z,26.5
2018-08-25T08:49:08.259Z,26.5
2018-08-25T08:49:58.973Z,26.5
2018-08-25T08:50:48.405Z,26.5
2018-08-25T08:51:39.044Z,26.5
2018-08-25T08:52:29.339Z,26.5
2018-08-25T08:53:18.279Z,26.5
2018-08-25T08:54:08.296Z,26.6
2018-08-25T08:54:58.997Z,26.6
2018-08-25T08:55:48.772Z,26.6
2018-08-25T08:56:39.139Z,26.5
2018-08-25T08:57:29.108Z,26.5
2018-08-25T08:58:20.200Z,26.6
2018-08-25T09:15:02.233Z,26.5
2018-08-25T09:15:51.512Z,26.6
2018-08-25T09:16:40.790Z,26.6
2018-08-25T09:17:32.507Z,26.6
2018-08-25T09:18:23.242Z,26.6
2018-08-25T09:19:12.966Z,26.6
2018-08-25T09:20:02.989Z,26.6
2018-08-25T09:20:52.700Z,26.6
2018-08-25T09:21:42.851Z,26.6
2018-08-25T09:22:31.832Z,26.6
2018-08-25T09:23:23.033Z,26.6
2018-08-25T09:24:12.829Z,26.7
2018-08-25T09:25:02.870Z,26.7
2018-08-25T09:25:53.430Z,26.7
2018-08-25T09:26:43.170Z,26.7
2018-08-25T09:27:35.379Z,26.8
2018-08-25T09:28:23.346Z,26.8
2018-08-25T09:29:13.242Z,26.8
2018-08-25T09:30:03.207Z,26.8
2018-08-25T09:30:54.085Z,26.8
2018-08-25T09:31:43.909Z,26.8
2018-08-25T09:32:33.664Z,26.8
2018-08-25T09:33:23.059Z,26.8
2018-08-25T09:34:13.598Z,26.8
2018-08-25T09:35:03.896Z,26.9
2018-08-25T09:35:56.141Z,26.8
2018-08-25T09:36:47.761Z,26.9
2018-08-25T09:37:34.062Z,26.9
2018-08-25T09:38:23.553Z,26.9
2018-08-25T09:39:14.242Z,26.9
2018-08-25T09:40:03.996Z,26.9
2018-08-25T09:40:54.051Z,26.9
2018-08-25T09:41:45.596Z,26.9
2018-08-25T09:42:33.688Z,26.9
2018-08-25T09:43:23.937Z,26.9
2018-08-25T09:44:14.876Z,27
2018-08-25T09:45:04.877Z,26.9
2018-08-25T09:45:55.287Z,26.9
2018-08-25T09:46:43.912Z,26.9
2018-08-25T09:47:34.524Z,26.9
2018-08-25T09:48:24.957Z,26.9
2018-08-25T09:49:15.244Z,26.9
2018-08-25T09:50:05.007Z,27
2018-08-25T09:50:55.593Z,26.9
2018-08-25T09:51:45.445Z,27
2018-08-25T09:52:35.017Z,26.9
2018-08-25T09:53:25.431Z,26.9
2018-08-25T09:54:15.607Z,27
2018-08-25T09:55:05.214Z,27
2018-08-25T09:55:55.195Z,27
2018-08-25T09:56:45.226Z,27
2018-08-25T09:57:35.854Z,27
2018-08-25T09:58:26.194Z,27
2018-08-25T09:59:16.630Z,27
2018-08-25T10:00:05.860Z,27.1
2018-08-25T10:00:56.426Z,27.1
2018-08-25T10:01:45.957Z,27.1
2018-08-25T10:02:36.288Z,27.1
2018-08-25T10:03:26.880Z,27.1
2018-08-25T10:04:15.881Z,27
2018-08-25T10:05:06.831Z,27.1
2018-08-25T10:05:56.882Z,27.1
2018-08-25T10:06:46.649Z,27.1
2018-08-25T10:07:36.448Z,27.1
2018-08-25T10:08:27.036Z,27.1
2018-08-25T10:09:16.816Z,27.1
2018-08-25T10:10:07.436Z,27.1
2018-08-25T10:10:58.996Z,27.1
2018-08-25T10:11:47.289Z,27.1
2018-08-25T10:12:37.108Z,27.1
2018-08-25T10:13:27.160Z,27.1
2018-08-25T10:14:17.503Z,27.1
2018-08-25T10:15:07.893Z,27.1
2018-08-25T10:15:57.418Z,27.1
2018-08-25T10:16:47.989Z,27.1
2018-08-25T10:17:37.013Z,27.1
2018-08-25T10:18:27.282Z,27.1
2018-08-25T10:19:17.579Z,27.1
2018-08-25T10:20:07.130Z,27.1
2018-08-25T10:20:57.763Z,27.1
2018-08-25T10:21:47.228Z,27.1
2018-08-25T10:22:37.213Z,27.1
2018-08-25T10:23:27.783Z,27.2
2018-08-25T10:24:17.467Z,27.1
2018-08-25T10:25:08.682Z,27.2
2018-08-25T10:25:58.619Z,27.2
2018-08-25T10:26:48.347Z,27.2
2018-08-25T10:27:37.975Z,27.2
2018-08-25T10:28:28.363Z,27.2
2018-08-25T10:29:18.717Z,27.2
2018-08-25T10:30:08.732Z,27.3
2018-08-25T10:30:57.447Z,27.3
2018-08-25T10:31:47.797Z,27.3
2018-08-25T10:32:37.555Z,27.3
2018-08-25T10:33:28.110Z,27.3
2018-08-25T10:34:18.506Z,27.3
2018-08-25T10:35:09.159Z,27.3
2018-08-25T10:35:59.290Z,27.3
2018-08-25T10:36:49.528Z,27.3
2018-08-25T10:37:38.752Z,27.3
2018-08-25T10:38:29.369Z,27.3
2018-08-25T10:39:18.887Z,27.3
2018-08-25T10:40:09.276Z,27.3
2018-08-25T10:40:58.558Z,27.3
2018-08-25T10:41:52.429Z,27.3
2018-08-25T10:42:39.454Z,27.3
2018-08-25T10:43:29.584Z,27.3
2018-08-25T10:44:18.476Z,27.3
2018-08-25T10:45:09.699Z,27.3
2018-08-25T10:45:59.430Z,27.3
2018-08-25T10:46:48.345Z,27.3
2018-08-25T10:47:39.246Z,27.3
2018-08-25T10:48:29.856Z,27.3
2018-08-25T10:49:20.283Z,27.3
2018-08-25T10:50:09.770Z,27.3
2018-08-25T10:50:59.823Z,27.3
2018-08-25T10:51:49.598Z,27.3
2018-08-25T10:52:40.887Z,27.3
2018-08-25T10:53:29.750Z,27.3
2018-08-25T10:54:20.403Z,27.3
2018-08-25T10:55:09.827Z,27.3
2018-08-25T10:56:00.722Z,27.3
2018-08-25T10:56:50.550Z,27.3
2018-08-25T10:57:41.388Z,27.3
2018-08-25T10:58:30.617Z,27.3
2018-08-25T10:59:20.437Z,27.3
2018-08-25T11:00:12.227Z,27.3
2018-08-25T11:01:04.711Z,27.3
2018-08-25T11:01:50.698Z,27.4
2018-08-25T11:02:40.464Z,27.4
2018-08-25T11:03:31.626Z,27.4
2018-08-25T11:04:21.429Z,27.4
2018-08-25T11:05:11.189Z,27.4
2018-08-25T11:06:01.062Z,27.4
2018-08-25T11:06:51.608Z,27.4
2018-08-25T11:07:41.863Z,27.4
2018-08-25T11:08:31.194Z,27.3
2018-08-25T11:09:21.541Z,27.4
2018-08-25T11:10:11.310Z,27.3
2018-08-25T11:11:01.119Z,27.3
2018-08-25T11:11:51.532Z,27.4
2018-08-25T11:12:41.500Z,27.4
2018-08-25T11:13:32.177Z,27.4
2018-08-25T11:14:22.186Z,27.4
2018-08-25T11:15:11.739Z,27.4
2018-08-25T11:16:02.062Z,27.4
2018-08-25T11:16:52.166Z,27.4
2018-08-25T11:17:41.895Z,27.4
2018-08-25T11:18:32.286Z,27.4
2018-08-25T11:19:22.611Z,27.4
2018-08-25T11:20:12.178Z,27.4
2018-08-25T11:21:02.178Z,27.4
2018-08-25T11:21:51.983Z,27.4
2018-08-25T11:22:42.667Z,27.4
2018-08-25T11:23:32.303Z,27.4
2018-08-25T11:24:21.554Z,27.4
2018-08-25T11:25:12.866Z,27.4
2018-08-25T11:26:01.423Z,27.4
2018-08-25T11:26:52.678Z,27.4
2018-08-25T11:27:42.195Z,27.4
2018-08-25T11:28:32.192Z,27.4
2018-08-25T11:29:25.861Z,27.4
2018-08-25T11:30:12.631Z,27.4
2018-08-25T11:31:02.630Z,27.4
2018-08-25T11:31:53.809Z,27.4
2018-08-25T11:32:42.777Z,27.4
2018-08-25T11:33:32.855Z,27.4
2018-08-25T11:34:23.759Z,27.5
2018-08-25T11:35:13.815Z,27.5
2018-08-25T11:36:03.307Z,27.5
2018-08-25T11:36:53.874Z,27.6
2018-08-25T11:37:45.495Z,27.6
2018-08-25T11:38:33.544Z,27.6
2018-08-25T11:39:23.884Z,27.5
2018-08-25T11:40:13.987Z,27.5
2018-08-25T11:41:03.482Z,27.6
2018-08-25T11:41:54.120Z,27.6
2018-08-25T11:42:43.847Z,27.6
2018-08-25T11:43:34.527Z,27.6
2018-08-25T11:44:24.036Z,27.6
2018-08-25T11:45:13.800Z,27.6
2018-08-25T11:46:03.795Z,27.6
2018-08-25T11:46:54.509Z,27.6
2018-08-25T11:47:43.702Z,27.6
2018-08-25T11:48:34.596Z,27.6
2018-08-25T11:49:23.561Z,27.6
2018-08-25T11:50:14.465Z,27.6
2018-08-25T11:51:05.129Z,27.6
2018-08-25T11:51:54.844Z,27.6
2018-08-25T11:52:45.309Z,27.6
2018-08-25T11:53:34.436Z,27.6
2018-08-25T11:54:25.405Z,27.6
2018-08-25T11:55:14.881Z,27.6
2018-08-25T11:56:05.529Z,27.6
2018-08-25T11:56:55.285Z,27.6
2018-08-25T11:57:43.902Z,27.6
2018-08-25T11:58:35.159Z,27.6